Time,TemperatureF,DewpointF,PressureIn,WindDirection,WindDirectionDegrees,WindSpeedMPH,WindSpeedGustMPH,Humidity,HourlyPrecipIn,Conditions,Clouds,dailyrainin,SoftwareType,DateUTC
2013-02-15 00:02:00,28.0,25.0,30.17,SSE,158,0.0,0.0,87,0.00,,,0.00,,2013-02-15 05:02:00,
2013-02-15 00:12:00,28.0,25.0,30.17,SSE,158,0.0,0.0,87,0.00,,,0.00,,2013-02-15 05:12:00,
2013-02-15 00:22:00,28.0,25.0,30.17,SSE,158,0.0,0.0,87,0.00,,,0.00,,2013-02-15 05:22:00,
2013-02-15 00:32:00,28.0,25.0,30.17,SSE,158,0.0,0.0,87,0.00,,,0.00,,2013-02-15 05:32:00,
2013-02-15 00:40:00,27.0,24.0,30.17,SSE,158,0.0,0.0,90,0.00,,,0.00,,2013-02-15 05:40:00,
2013-02-15 01:02:00,27.0,24.0,30.17,SSE,158,0.0,0.0,90,0.00,,,0.00,,2013-02-15 06:02:00,
2013-02-15 01:11:00,27.0,24.0,30.17,SSE,158,0.0,0.0,90,0.00,,,0.00,,2013-02-15 06:11:00,
2013-02-15 01:22:00,27.0,24.0,30.17,SSE,158,0.0,0.0,90,0.00,,,0.00,,2013-02-15 06:22:00,
2013-02-15 01:32:00,27.0,24.0,30.17,SSE,158,0.0,0.0,90,0.00,,,0.00,,2013-02-15 06:32:00,
2013-02-15 01:40:00,27.0,25.0,30.18,SSE,158,0.0,0.0,91,0.00,,,0.00,,2013-02-15 06:40:00,
2013-02-15 02:01:00,27.0,25.0,30.18,SSE,158,0.0,0.0,91,0.00,,,0.00,,2013-02-15 07:01:00,
2013-02-15 02:11:00,27.0,25.0,30.18,SSE,158,0.0,0.0,91,0.00,,,0.00,,2013-02-15 07:11:00,
2013-02-15 02:21:00,27.0,25.0,30.18,SSE,158,0.0,0.0,91,0.00,,,0.00,,2013-02-15 07:21:00,
2013-02-15 02:32:00,27.0,25.0,30.18,SSE,158,0.0,0.0,91,0.00,,,0.00,,2013-02-15 07:32:00,
2013-02-15 02:40:00,27.0,27.0,30.18,North,0,255.0,255.0,100,0.00,,,0.00,,2013-02-15 07:40:00,
2013-02-15 03:01:00,27.0,27.0,30.18,North,0,255.0,255.0,100,0.00,,,0.00,,2013-02-15 08:01:00,
2013-02-15 03:11:00,27.0,27.0,30.18,North,0,255.0,255.0,100,0.00,,,0.00,,2013-02-15 08:11:00,
2013-02-15 03:21:00,27.0,27.0,30.18,North,0,255.0,255.0,100,0.00,,,0.00,,2013-02-15 08:21:00,
2013-02-15 03:32:00,27.0,27.0,30.18,North,0,255.0,255.0,100,0.00,,,0.00,,2013-02-15 08:32:00,
2013-02-15 03:40:00,27.0,27.0,30.16,North,0,255.0,255.0,100,0.00,,,0.00,,2013-02-15 08:40:00,
2013-02-15 04:02:00,27.0,27.0,30.16,North,0,255.0,255.0,100,0.00,,,0.00,,2013-02-15 09:02:00,
2013-02-15 04:12:00,27.0,27.0,30.16,North,0,255.0,255.0,100,0.00,,,0.00,,2013-02-15 09:12:00,
2013-02-15 04:22:00,27.0,27.0,30.16,North,0,255.0,255.0,100,0.00,,,0.00,,2013-02-15 09:22:00,
2013-02-15 04:32:00,27.0,27.0,30.16,North,0,255.0,255.0,100,0.00,,,0.00,,2013-02-15 09:32:00,
2013-02-15 04:40:00,27.0,27.0,30.16,North,0,255.0,255.0,100,0.00,,,0.00,,2013-02-15 09:40:00,
2013-02-15 05:02:00,27.0,27.0,30.16,North,0,255.0,255.0,100,0.00,,,0.00,,2013-02-15 10:02:00,
2013-02-15 05:11:00,27.0,27.0,30.16,North,0,255.0,255.0,100,0.00,,,0.00,,2013-02-15 10:11:00,
2013-02-15 05:21:00,27.0,27.0,30.16,North,0,255.0,255.0,100,0.00,,,0.00,,2013-02-15 10:21:00,
2013-02-15 05:32:00,27.0,27.0,30.16,North,0,255.0,255.0,100,0.00,,,0.00,,2013-02-15 10:32:00,
2013-02-15 05:40:00,27.0,27.0,30.16,North,0,255.0,255.0,100,0.00,,,0.00,,2013-02-15 10:40:00,
2013-02-15 06:01:00,27.0,27.0,30.16,North,0,255.0,255.0,100,0.00,,,0.00,,2013-02-15 11:01:00,
2013-02-15 06:11:00,27.0,27.0,30.16,North,0,255.0,255.0,100,0.00,,,0.00,,2013-02-15 11:11:00,
2013-02-15 06:23:00,27.0,27.0,30.16,North,0,255.0,255.0,100,0.00,,,0.00,,2013-02-15 11:23:00,
2013-02-15 06:32:00,27.0,27.0,30.16,North,0,255.0,255.0,100,0.00,,,0.00,,2013-02-15 11:32:00,
2013-02-15 06:40:00,27.0,27.0,30.16,North,0,255.0,255.0,100,0.00,,,0.00,,2013-02-15 11:40:00,
2013-02-15 07:02:00,27.0,27.0,30.16,North,0,255.0,255.0,100,0.00,,,0.00,,2013-02-15 12:02:00,
2013-02-15 07:11:00,27.0,27.0,30.16,North,0,255.0,255.0,100,0.00,,,0.00,,2013-02-15 12:11:00,
2013-02-15 07:22:00,27.0,27.0,30.16,North,0,255.0,255.0,100,0.00,,,0.00,,2013-02-15 12:22:00,
2013-02-15 07:32:00,27.0,27.0,30.16,North,0,255.0,255.0,100,0.00,,,0.00,,2013-02-15 12:32:00,
2013-02-15 07:40:00,27.0,27.0,30.19,North,0,255.0,255.0,100,0.00,,,0.00,,2013-02-15 12:40:00,
2013-02-15 08:02:00,27.0,27.0,30.19,North,0,255.0,255.0,100,0.00,,,0.00,,2013-02-15 13:02:00,
2013-02-15 08:11:00,27.0,27.0,30.19,North,0,255.0,255.0,100,0.00,,,0.00,,2013-02-15 13:11:00,
2013-02-15 08:22:00,27.0,27.0,30.19,North,0,255.0,255.0,100,0.00,,,0.00,,2013-02-15 13:22:00,
2013-02-15 08:32:00,27.0,27.0,30.19,North,0,255.0,255.0,100,0.00,,,0.00,,2013-02-15 13:32:00,
2013-02-15 08:40:00,30.0,29.0,30.21,SSE,158,0.0,0.0,96,0.00,,,0.00,,2013-02-15 13:40:00,
2013-02-15 09:01:00,30.0,29.0,30.21,SSE,158,0.0,0.0,96,0.00,,,0.00,,2013-02-15 14:01:00,
2013-02-15 09:12:00,30.0,29.0,30.21,SSE,158,0.0,0.0,96,0.00,,,0.00,,2013-02-15 14:12:00,
2013-02-15 09:22:00,30.0,29.0,30.21,SSE,158,0.0,0.0,96,0.00,,,0.00,,2013-02-15 14:22:00,
2013-02-15 09:32:00,30.0,29.0,30.21,SSE,158,0.0,0.0,96,0.00,,,0.00,,2013-02-15 14:32:00,
2013-02-15 09:40:00,41.0,34.0,30.21,SE,135,3.0,6.0,76,0.00,,,0.00,,2013-02-15 14:40:00,
2013-02-15 10:02:00,41.0,34.0,30.21,SE,135,3.0,6.0,76,0.00,,,0.00,,2013-02-15 15:02:00,
2013-02-15 10:11:00,41.0,34.0,30.21,SE,135,3.0,6.0,76,0.00,,,0.00,,2013-02-15 15:11:00,
2013-02-15 10:22:00,41.0,34.0,30.21,SE,135,3.0,6.0,76,0.00,,,0.00,,2013-02-15 15:22:00,
2013-02-15 10:32:00,41.0,34.0,30.21,SE,135,3.0,6.0,76,0.00,,,0.00,,2013-02-15 15:32:00,
2013-02-15 10:40:00,46.0,35.0,30.19,SSE,158,1.0,3.0,65,0.00,,,0.00,,2013-02-15 15:40:00,
2013-02-15 11:02:00,46.0,35.0,30.19,SSE,158,1.0,3.0,65,0.00,,,0.00,,2013-02-15 16:02:00,
2013-02-15 11:12:00,46.0,35.0,30.19,SSE,158,1.0,3.0,65,0.00,,,0.00,,2013-02-15 16:12:00,
2013-02-15 11:22:00,46.0,35.0,30.19,SSE,158,1.0,3.0,65,0.00,,,0.00,,2013-02-15 16:22:00,
2013-02-15 11:32:00,46.0,35.0,30.19,SSE,158,1.0,3.0,65,0.00,,,0.00,,2013-02-15 16:32:00,
2013-02-15 11:40:00,48.0,33.0,30.17,West,270,2.0,15.0,55,0.00,,,0.00,,2013-02-15 16:40:00,
2013-02-15 12:01:00,48.0,33.0,30.17,West,270,2.0,15.0,55,0.00,,,0.00,,2013-02-15 17:01:00,
2013-02-15 12:11:00,48.0,33.0,30.17,West,270,2.0,15.0,55,0.00,,,0.00,,2013-02-15 17:11:00,
2013-02-15 12:21:00,48.0,33.0,30.17,West,270,2.0,15.0,55,0.00,,,0.00,,2013-02-15 17:21:00,
2013-02-15 12:32:00,48.0,33.0,30.17,West,270,2.0,15.0,55,0.00,,,0.00,,2013-02-15 17:32:00,
2013-02-15 12:40:00,48.0,32.0,30.14,SSE,158,1.0,8.0,53,0.00,,,0.00,,2013-02-15 17:40:00,
2013-02-15 13:02:00,48.0,32.0,30.14,SSE,158,1.0,8.0,53,0.00,,,0.00,,2013-02-15 18:02:00,
2013-02-15 13:12:00,48.0,32.0,30.14,SSE,158,1.0,8.0,53,0.00,,,0.00,,2013-02-15 18:12:00,
2013-02-15 13:22:00,48.0,32.0,30.14,SSE,158,1.0,8.0,53,0.00,,,0.00,,2013-02-15 18:22:00,
2013-02-15 13:32:00,48.0,32.0,30.14,SSE,158,1.0,8.0,53,0.00,,,0.00,,2013-02-15 18:32:00,
2013-02-15 14:40:00,49.0,31.0,30.09,ESE,113,0.0,6.0,50,0.00,,,0.00,,2013-02-15 19:40:00,
2013-02-15 15:02:00,49.0,31.0,30.09,ESE,113,0.0,6.0,50,0.00,,,0.00,,2013-02-15 20:02:00,
2013-02-15 15:11:00,49.0,31.0,30.09,ESE,113,0.0,6.0,50,0.00,,,0.00,,2013-02-15 20:11:00,
2013-02-15 15:22:00,49.0,31.0,30.09,ESE,113,0.0,6.0,50,0.00,,,0.00,,2013-02-15 20:22:00,
2013-02-15 15:32:00,49.0,31.0,30.09,ESE,113,0.0,6.0,50,0.00,,,0.00,,2013-02-15 20:32:00,
2013-02-15 15:40:00,48.0,31.0,30.07,NW,315,3.0,12.0,51,0.00,,,0.00,,2013-02-15 20:40:00,
2013-02-15 16:02:00,48.0,31.0,30.07,NW,315,3.0,12.0,51,0.00,,,0.00,,2013-02-15 21:02:00,
2013-02-15 16:11:00,48.0,31.0,30.07,NW,315,3.0,12.0,51,0.00,,,0.00,,2013-02-15 21:11:00,
2013-02-15 16:22:00,48.0,31.0,30.07,NW,315,3.0,12.0,51,0.00,,,0.00,,2013-02-15 21:22:00,
2013-02-15 16:32:00,48.0,31.0,30.07,NW,315,3.0,12.0,51,0.00,,,0.00,,2013-02-15 21:32:00,
2013-02-15 16:40:00,46.0,35.0,30.08,SE,135,0.0,7.0,64,0.00,,,0.00,,2013-02-15 21:40:00,
2013-02-15 17:02:00,46.0,35.0,30.08,SE,135,0.0,7.0,64,0.00,,,0.00,,2013-02-15 22:02:00,
2013-02-15 17:11:00,46.0,35.0,30.08,SE,135,0.0,7.0,64,0.00,,,0.00,,2013-02-15 22:11:00,
2013-02-15 17:22:00,46.0,35.0,30.08,SE,135,0.0,7.0,64,0.00,,,0.00,,2013-02-15 22:22:00,
2013-02-15 17:32:00,46.0,35.0,30.08,SE,135,0.0,7.0,64,0.00,,,0.00,,2013-02-15 22:32:00,
2013-02-15 17:40:00,42.0,36.0,30.09,NNE,23,0.0,1.0,78,0.01,,,0.01,,2013-02-15 22:40:00,
2013-02-15 18:02:00,42.0,36.0,30.09,NNE,23,0.0,1.0,78,0.01,,,0.01,,2013-02-15 23:02:00,
2013-02-15 18:11:00,42.0,36.0,30.09,NNE,23,0.0,1.0,78,0.01,,,0.01,,2013-02-15 23:11:00,
2013-02-15 18:21:00,42.0,36.0,30.09,NNE,23,0.0,1.0,78,0.01,,,0.01,,2013-02-15 23:21:00,
2013-02-15 18:32:00,42.0,36.0,30.09,NNE,23,0.0,1.0,78,0.01,,,0.01,,2013-02-15 23:32:00,
2013-02-15 18:40:00,37.0,34.0,30.12,NW,315,5.0,10.0,87,0.01,,,0.02,,2013-02-15 23:40:00,
2013-02-15 19:02:00,37.0,34.0,30.12,NW,315,5.0,10.0,87,0.01,,,0.02,,2013-02-16 00:02:00,
2013-02-15 19:11:00,37.0,34.0,30.12,NW,315,5.0,10.0,87,0.01,,,0.02,,2013-02-16 00:11:00,
2013-02-15 19:22:00,37.0,34.0,30.12,NW,315,5.0,10.0,87,0.01,,,0.02,,2013-02-16 00:22:00,
2013-02-15 19:32:00,37.0,34.0,30.12,NW,315,5.0,10.0,87,0.01,,,0.02,,2013-02-16 00:32:00,
2013-02-15 20:40:00,32.0,30.0,30.15,WNW,293,3.0,5.0,93,0.00,,,0.03,,2013-02-16 01:40:00,
2013-02-15 21:01:00,32.0,30.0,30.15,WNW,293,3.0,5.0,93,0.00,,,0.03,,2013-02-16 02:01:00,
2013-02-15 21:11:00,32.0,30.0,30.15,WNW,293,3.0,5.0,93,0.00,,,0.03,,2013-02-16 02:11:00,
2013-02-15 21:22:00,32.0,30.0,30.15,WNW,293,3.0,5.0,93,0.00,,,0.03,,2013-02-16 02:22:00,
2013-02-15 21:32:00,32.0,30.0,30.15,WNW,293,3.0,5.0,93,0.00,,,0.03,,2013-02-16 02:32:00,
2013-02-15 21:41:00,32.0,30.0,30.15,West,270,0.0,1.0,93,0.00,,,0.03,,2013-02-16 02:41:00,
2013-02-15 22:02:00,32.0,30.0,30.15,West,270,0.0,1.0,93,0.00,,,0.03,,2013-02-16 03:02:00,
2013-02-15 22:11:00,32.0,30.0,30.15,West,270,0.0,1.0,93,0.00,,,0.03,,2013-02-16 03:11:00,
2013-02-15 22:21:00,32.0,30.0,30.15,West,270,0.0,1.0,93,0.00,,,0.03,,2013-02-16 03:21:00,
2013-02-15 22:32:00,32.0,30.0,30.15,West,270,0.0,1.0,93,0.00,,,0.03,,2013-02-16 03:32:00,
2013-02-15 22:41:00,31.0,29.0,30.14,NNW,338,1.0,3.0,92,0.00,,,0.03,,2013-02-16 03:41:00,
2013-02-15 23:01:00,31.0,29.0,30.14,NNW,338,1.0,3.0,92,0.00,,,0.03,,2013-02-16 04:01:00,
2013-02-15 23:11:00,31.0,29.0,30.14,NNW,338,1.0,3.0,92,0.00,,,0.03,,2013-02-16 04:11:00,
2013-02-15 23:21:00,31.0,29.0,30.14,NNW,338,1.0,3.0,92,0.00,,,0.03,,2013-02-16 04:21:00,
2013-02-15 23:32:00,31.0,29.0,30.14,NNW,338,1.0,3.0,92,0.00,,,0.03,,2013-02-16 04:32:00,
2013-02-15 23:41:00,31.0,28.0,30.12,NNW,338,3.0,10.0,90,0.00,,,0.03,,2013-02-16 04:41:00,